sensor_id;sensor_type;location;lat;lon;timestamp;temperature;humidity
16243;DHT22;11719;51.052;6.982;2023-04-25T00:01:32;12.70;99.90
16243;DHT22;11719;51.052;6.982;2023-04-25T00:04:01;12.70;99.90
16243;DHT22;11719;51.052;6.982;2023-04-25T00:06:28;12.80;99.90
16243;DHT22;11719;51.052;6.982;2023-04-25T00:08:55;12.80;99.90
16243;DHT22;11719;51.052;6.982;2023-04-25T00:11:22;12.90;99.90
16243;DHT22;11719;51.052;6.982;2023-04-25T00:13:48;12.80;99.90
16243;DHT22;11719;51.052;6.982;2023-04-25T00:16:16;12.80;99.90
16243;DHT22;11719;51.052;6.982;2023-04-25T00:18:42;13.00;99.90
16243;DHT22;11719;51.052;6.982;2023-04-25T00:21:08;12.90;99.90
16243;DHT22;11719;51.052;6.982;2023-04-25T00:23:34;12.90;99.90
16243;DHT22;11719;51.052;6.982;2023-04-25T00:26:01;13.00;99.90
16243;DHT22;11719;51.052;6.982;2023-04-25T00:28:27;12.90;99.90
16243;DHT22;11719;51.052;6.982;2023-04-25T00:30:53;12.80;99.90
16243;DHT22;11719;51.052;6.982;2023-04-25T00:33:19;12.80;99.90
16243;DHT22;11719;51.052;6.982;2023-04-25T00:35:45;12.90;99.90
16243;DHT22;11719;51.052;6.982;2023-04-25T00:38:11;13.00;99.90
16243;DHT22;11719;51.052;6.982;2023-04-25T00:40:37;13.10;99.90
16243;DHT22;11719;51.052;6.982;2023-04-25T00:43:02;13.00;99.90
16243;DHT22;11719;51.052;6.982;2023-04-25T00:45:29;12.90;99.90
16243;DHT22;11719;51.052;6.982;2023-04-25T00:47:56;12.80;99.90
16243;DHT22;11719;51.052;6.982;2023-04-25T00:50:22;12.80;99.90
16243;DHT22;11719;51.052;6.982;2023-04-25T00:52:49;12.70;99.90
16243;DHT22;11719;51.052;6.982;2023-04-25T00:55:15;12.80;99.90
16243;DHT22;11719;51.052;6.982;2023-04-25T00:57:41;12.90;99.90
16243;DHT22;11719;51.052;6.982;2023-04-25T01:00:08;12.80;99.90
16243;DHT22;11719;51.052;6.982;2023-04-25T01:02:35;12.80;99.90
16243;DHT22;11719;51.052;6.982;2023-04-25T01:05:02;13.00;99.90
16243;DHT22;11719;51.052;6.982;2023-04-25T01:07:29;13.10;99.90
16243;DHT22;11719;51.052;6.982;2023-04-25T01:09:55;12.90;99.90
16243;DHT22;11719;51.052;6.982;2023-04-25T01:12:22;12.90;99.90
16243;DHT22;11719;51.052;6.982;2023-04-25T01:14:49;12.80;99.90
16243;DHT22;11719;51.052;6.982;2023-04-25T01:17:15;12.60;99.90
16243;DHT22;11719;51.052;6.982;2023-04-25T01:19:43;12.50;99.90
16243;DHT22;11719;51.052;6.982;2023-04-25T01:22:09;12.40;99.90
16243;DHT22;11719;51.052;6.982;2023-04-25T01:24:36;12.40;99.90
16243;DHT22;11719;51.052;6.982;2023-04-25T01:27:02;12.30;99.90
16243;DHT22;11719;51.052;6.982;2023-04-25T01:29:29;12.30;99.90
16243;DHT22;11719;51.052;6.982;2023-04-25T01:31:55;12.10;99.90
16243;DHT22;11719;51.052;6.982;2023-04-25T01:34:24;11.90;99.90
16243;DHT22;11719;51.052;6.982;2023-04-25T01:36:51;11.90;99.90
16243;DHT22;11719;51.052;6.982;2023-04-25T01:39:18;11.80;99.90
16243;DHT22;11719;51.052;6.982;2023-04-25T01:41:45;11.90;99.90
16243;DHT22;11719;51.052;6.982;2023-04-25T01:44:11;12.00;99.90
16243;DHT22;11719;51.052;6.982;2023-04-25T01:46:37;11.90;99.90
16243;DHT22;11719;51.052;6.982;2023-04-25T01:49:03;11.90;99.90
16243;DHT22;11719;51.052;6.982;2023-04-25T01:51:30;11.80;99.90
16243;DHT22;11719;51.052;6.982;2023-04-25T01:53:57;11.70;99.90
16243;DHT22;11719;51.052;6.982;2023-04-25T01:56:23;11.70;99.90
16243;DHT22;11719;51.052;6.982;2023-04-25T01:58:49;11.60;99.90
16243;DHT22;11719;51.052;6.982;2023-04-25T02:01:14;11.50;99.90
16243;DHT22;11719;51.052;6.982;2023-04-25T02:03:40;11.50;99.90
16243;DHT22;11719;51.052;6.982;2023-04-25T02:06:06;11.30;99.90
16243;DHT22;11719;51.052;6.982;2023-04-25T02:08:32;11.40;99.90
16243;DHT22;11719;51.052;6.982;2023-04-25T02:10:58;11.50;99.90
16243;DHT22;11719;51.052;6.982;2023-04-25T02:13:24;11.50;99.90
16243;DHT22;11719;51.052;6.982;2023-04-25T02:15:50;11.50;99.90
16243;DHT22;11719;51.052;6.982;2023-04-25T02:18:16;11.40;99.90
16243;DHT22;11719;51.052;6.982;2023-04-25T02:20:42;11.30;99.90
16243;DHT22;11719;51.052;6.982;2023-04-25T02:23:08;11.30;99.90
16243;DHT22;11719;51.052;6.982;2023-04-25T02:25:34;11.20;99.90
16243;DHT22;11719;51.052;6.982;2023-04-25T02:28:00;11.30;99.90
16243;DHT22;11719;51.052;6.982;2023-04-25T02:30:26;11.10;99.90
16243;DHT22;11719;51.052;6.982;2023-04-25T02:32:51;11.10;99.90
16243;DHT22;11719;51.052;6.982;2023-04-25T02:35:17;11.10;99.90
16243;DHT22;11719;51.052;6.982;2023-04-25T02:37:43;11.10;99.90
16243;DHT22;11719;51.052;6.982;2023-04-25T02:40:09;11.00;99.90
16243;DHT22;11719;51.052;6.982;2023-04-25T02:42:35;11.10;99.90
16243;DHT22;11719;51.052;6.982;2023-04-25T02:45:02;11.10;99.90
16243;DHT22;11719;51.052;6.982;2023-04-25T02:47:28;11.10;99.90
16243;DHT22;11719;51.052;6.982;2023-04-25T02:49:54;11.10;99.90
16243;DHT22;11719;51.052;6.982;2023-04-25T02:52:20;11.10;99.90
16243;DHT22;11719;51.052;6.982;2023-04-25T02:54:46;11.40;99.90
16243;DHT22;11719;51.052;6.982;2023-04-25T02:57:12;11.40;99.90
16243;DHT22;11719;51.052;6.982;2023-04-25T02:59:38;11.50;99.90
16243;DHT22;11719;51.052;6.982;2023-04-25T03:02:04;11.60;99.90
16243;DHT22;11719;51.052;6.982;2023-04-25T03:04:29;11.60;99.90
16243;DHT22;11719;51.052;6.982;2023-04-25T03:06:55;11.80;99.90
16243;DHT22;11719;51.052;6.982;2023-04-25T03:09:21;11.70;99.90
16243;DHT22;11719;51.052;6.982;2023-04-25T03:11:47;11.70;99.90
16243;DHT22;11719;51.052;6.982;2023-04-25T03:14:13;11.80;99.90
16243;DHT22;11719;51.052;6.982;2023-04-25T03:16:39;11.70;99.90
16243;DHT22;11719;51.052;6.982;2023-04-25T03:19:05;11.70;99.90
16243;DHT22;11719;51.052;6.982;2023-04-25T03:21:32;11.70;99.90
16243;DHT22;11719;51.052;6.982;2023-04-25T03:24:00;11.70;99.90
16243;DHT22;11719;51.052;6.982;2023-04-25T03:26:26;11.60;99.90
16243;DHT22;11719;51.052;6.982;2023-04-25T03:28:52;11.60;99.90
16243;DHT22;11719;51.052;6.982;2023-04-25T03:31:18;11.60;99.90
16243;DHT22;11719;51.052;6.982;2023-04-25T03:33:43;11.60;99.90
16243;DHT22;11719;51.052;6.982;2023-04-25T03:36:09;11.60;99.90
16243;DHT22;11719;51.052;6.982;2023-04-25T03:38:35;11.50;99.90
16243;DHT22;11719;51.052;6.982;2023-04-25T03:41:02;11.60;99.90
16243;DHT22;11719;51.052;6.982;2023-04-25T03:43:28;11.60;99.90
16243;DHT22;11719;51.052;6.982;2023-04-25T03:45:53;11.50;99.90
16243;DHT22;11719;51.052;6.982;2023-04-25T03:48:19;11.50;99.90
16243;DHT22;11719;51.052;6.982;2023-04-25T03:50:47;11.50;99.90
16243;DHT22;11719;51.052;6.982;2023-04-25T03:53:13;11.60;99.90
16243;DHT22;11719;51.052;6.982;2023-04-25T03:55:39;11.60;99.90
16243;DHT22;11719;51.052;6.982;2023-04-25T03:58:05;11.60;99.90
16243;DHT22;11719;51.052;6.982;2023-04-25T04:00:31;11.60;99.90
16243;DHT22;11719;51.052;6.982;2023-04-25T04:02:57;11.60;99.90
16243;DHT22;11719;51.052;6.982;2023-04-25T04:05:22;11.60;99.90
16243;DHT22;11719;51.052;6.982;2023-04-25T04:07:48;11.60;99.90
16243;DHT22;11719;51.052;6.982;2023-04-25T04:10:15;11.60;99.90
16243;DHT22;11719;51.052;6.982;2023-04-25T04:12:41;11.60;99.90
16243;DHT22;11719;51.052;6.982;2023-04-25T04:15:07;11.60;99.90
16243;DHT22;11719;51.052;6.982;2023-04-25T04:17:33;11.60;99.90
16243;DHT22;11719;51.052;6.982;2023-04-25T04:19:59;11.80;99.90
16243;DHT22;11719;51.052;6.982;2023-04-25T04:22:25;11.70;99.90
16243;DHT22;11719;51.052;6.982;2023-04-25T04:24:51;11.80;99.90
16243;DHT22;11719;51.052;6.982;2023-04-25T04:27:22;11.80;99.90
16243;DHT22;11719;51.052;6.982;2023-04-25T04:29:48;11.70;99.90
16243;DHT22;11719;51.052;6.982;2023-04-25T04:32:15;11.80;99.90
16243;DHT22;11719;51.052;6.982;2023-04-25T04:34:41;11.80;99.90
16243;DHT22;11719;51.052;6.982;2023-04-25T04:37:07;11.80;99.90
16243;DHT22;11719;51.052;6.982;2023-04-25T04:39:34;11.90;99.90
16243;DHT22;11719;51.052;6.982;2023-04-25T04:41:59;11.80;99.90
16243;DHT22;11719;51.052;6.982;2023-04-25T04:44:27;12.00;99.90
16243;DHT22;11719;51.052;6.982;2023-04-25T04:46:54;11.80;99.90
16243;DHT22;11719;51.052;6.982;2023-04-25T04:49:20;11.70;99.90
16243;DHT22;11719;51.052;6.982;2023-04-25T04:51:46;11.60;99.90
16243;DHT22;11719;51.052;6.982;2023-04-25T04:54:13;11.60;99.90
16243;DHT22;11719;51.052;6.982;2023-04-25T04:56:39;11.60;99.90
16243;DHT22;11719;51.052;6.982;2023-04-25T04:59:04;11.60;99.90
16243;DHT22;11719;51.052;6.982;2023-04-25T05:01:30;11.50;99.90
16243;DHT22;11719;51.052;6.982;2023-04-25T05:03:56;11.40;99.90
16243;DHT22;11719;51.052;6.982;2023-04-25T05:06:26;11.50;99.90
16243;DHT22;11719;51.052;6.982;2023-04-25T05:08:54;11.50;99.90
16243;DHT22;11719;51.052;6.982;2023-04-25T05:11:21;11.70;99.90
16243;DHT22;11719;51.052;6.982;2023-04-25T05:13:47;11.70;99.90
16243;DHT22;11719;51.052;6.982;2023-04-25T05:16:13;11.70;99.90
16243;DHT22;11719;51.052;6.982;2023-04-25T05:18:40;11.70;99.90
16243;DHT22;11719;51.052;6.982;2023-04-25T05:21:05;11.80;99.90
16243;DHT22;11719;51.052;6.982;2023-04-25T05:23:32;11.80;99.90
16243;DHT22;11719;51.052;6.982;2023-04-25T05:25:59;11.80;99.90
16243;DHT22;11719;51.052;6.982;2023-04-25T05:28:25;11.70;99.90
16243;DHT22;11719;51.052;6.982;2023-04-25T05:30:51;11.60;99.90
16243;DHT22;11719;51.052;6.982;2023-04-25T05:33:17;11.60;99.90
16243;DHT22;11719;51.052;6.982;2023-04-25T05:35:43;11.60;99.90
16243;DHT22;11719;51.052;6.982;2023-04-25T05:38:10;11.70;99.90
16243;DHT22;11719;51.052;6.982;2023-04-25T05:40:36;11.60;99.90
16243;DHT22;11719;51.052;6.982;2023-04-25T05:43:02;11.40;99.90
16243;DHT22;11719;51.052;6.982;2023-04-25T05:45:28;11.30;99.90
16243;DHT22;11719;51.052;6.982;2023-04-25T05:47:54;11.50;99.90
16243;DHT22;11719;51.052;6.982;2023-04-25T05:50:19;11.60;99.90
16243;DHT22;11719;51.052;6.982;2023-04-25T05:52:45;11.50;99.90
16243;DHT22;11719;51.052;6.982;2023-04-25T05:55:11;11.60;99.90
16243;DHT22;11719;51.052;6.982;2023-04-25T05:57:37;11.50;99.90
16243;DHT22;11719;51.052;6.982;2023-04-25T06:00:07;11.50;99.90
16243;DHT22;11719;51.052;6.982;2023-04-25T06:02:34;11.40;99.90
16243;DHT22;11719;51.052;6.982;2023-04-25T06:05:01;11.30;99.90
16243;DHT22;11719;51.052;6.982;2023-04-25T06:07:29;11.30;99.90
16243;DHT22;11719;51.052;6.982;2023-04-25T06:09:56;11.30;99.90
16243;DHT22;11719;51.052;6.982;2023-04-25T06:12:21;11.30;99.90
16243;DHT22;11719;51.052;6.982;2023-04-25T06:14:47;11.20;99.90
16243;DHT22;11719;51.052;6.982;2023-04-25T06:17:13;11.20;99.90
16243;DHT22;11719;51.052;6.982;2023-04-25T06:19:39;11.30;99.90
16243;DHT22;11719;51.052;6.982;2023-04-25T06:22:05;11.30;99.90
16243;DHT22;11719;51.052;6.982;2023-04-25T06:24:32;11.50;99.90
16243;DHT22;11719;51.052;6.982;2023-04-25T06:26:58;11.60;99.90
16243;DHT22;11719;51.052;6.982;2023-04-25T06:29:25;11.70;99.90
16243;DHT22;11719;51.052;6.982;2023-04-25T06:31:51;11.70;99.90
16243;DHT22;11719;51.052;6.982;2023-04-25T06:34:17;11.70;99.90
16243;DHT22;11719;51.052;6.982;2023-04-25T06:36:42;11.90;99.90
16243;DHT22;11719;51.052;6.982;2023-04-25T06:39:09;12.00;99.90
16243;DHT22;11719;51.052;6.982;2023-04-25T06:41:36;12.30;99.90
16243;DHT22;11719;51.052;6.982;2023-04-25T06:44:02;12.40;99.90
16243;DHT22;11719;51.052;6.982;2023-04-25T06:46:28;12.40;99.90
16243;DHT22;11719;51.052;6.982;2023-04-25T06:48:54;12.30;99.90
16243;DHT22;11719;51.052;6.982;2023-04-25T06:51:19;12.20;99.90
16243;DHT22;11719;51.052;6.982;2023-04-25T06:53:45;12.20;99.90
16243;DHT22;11719;51.052;6.982;2023-04-25T06:56:11;12.10;99.90
16243;DHT22;11719;51.052;6.982;2023-04-25T06:58:36;12.10;99.90
16243;DHT22;11719;51.052;6.982;2023-04-25T07:01:02;12.00;99.90
16243;DHT22;11719;51.052;6.982;2023-04-25T07:03:28;12.00;99.90
16243;DHT22;11719;51.052;6.982;2023-04-25T07:05:54;11.90;99.90
16243;DHT22;11719;51.052;6.982;2023-04-25T07:08:20;11.80;99.90
16243;DHT22;11719;51.052;6.982;2023-04-25T07:10:46;11.80;99.90
16243;DHT22;11719;51.052;6.982;2023-04-25T07:13:12;11.80;99.90
16243;DHT22;11719;51.052;6.982;2023-04-25T07:15:38;11.80;99.90
16243;DHT22;11719;51.052;6.982;2023-04-25T07:18:04;11.80;99.90
16243;DHT22;11719;51.052;6.982;2023-04-25T07:20:30;11.80;99.90
16243;DHT22;11719;51.052;6.982;2023-04-25T07:22:56;11.80;99.90
16243;DHT22;11719;51.052;6.982;2023-04-25T07:25:22;12.00;99.90
16243;DHT22;11719;51.052;6.982;2023-04-25T07:27:48;12.10;99.90
16243;DHT22;11719;51.052;6.982;2023-04-25T07:30:14;12.20;99.90
16243;DHT22;11719;51.052;6.982;2023-04-25T07:32:40;12.20;99.90
16243;DHT22;11719;51.052;6.982;2023-04-25T07:35:06;12.10;99.90
16243;DHT22;11719;51.052;6.982;2023-04-25T07:37:34;12.00;99.90
16243;DHT22;11719;51.052;6.982;2023-04-25T07:40:00;12.10;99.90
16243;DHT22;11719;51.052;6.982;2023-04-25T07:42:29;12.00;99.90
16243;DHT22;11719;51.052;6.982;2023-04-25T07:44:55;12.20;99.90
16243;DHT22;11719;51.052;6.982;2023-04-25T07:47:21;12.40;99.90
16243;DHT22;11719;51.052;6.982;2023-04-25T07:49:47;12.30;99.90
16243;DHT22;11719;51.052;6.982;2023-04-25T07:52:13;12.10;99.90
16243;DHT22;11719;51.052;6.982;2023-04-25T07:54:39;12.20;99.90
16243;DHT22;11719;51.052;6.982;2023-04-25T07:57:05;12.30;99.90
16243;DHT22;11719;51.052;6.982;2023-04-25T07:59:34;12.50;99.90
16243;DHT22;11719;51.052;6.982;2023-04-25T08:02:00;12.50;99.90
16243;DHT22;11719;51.052;6.982;2023-04-25T08:04:26;12.50;99.90
16243;DHT22;11719;51.052;6.982;2023-04-25T08:06:52;12.40;99.90
16243;DHT22;11719;51.052;6.982;2023-04-25T08:09:19;12.30;99.90
16243;DHT22;11719;51.052;6.982;2023-04-25T08:11:46;12.00;99.90
16243;DHT22;11719;51.052;6.982;2023-04-25T08:14:12;11.90;99.90
16243;DHT22;11719;51.052;6.982;2023-04-25T08:16:39;11.90;99.90
16243;DHT22;11719;51.052;6.982;2023-04-25T08:19:05;11.90;99.90
16243;DHT22;11719;51.052;6.982;2023-04-25T08:21:31;12.00;99.90
16243;DHT22;11719;51.052;6.982;2023-04-25T08:23:57;12.10;99.90
16243;DHT22;11719;51.052;6.982;2023-04-25T08:26:24;12.10;99.90
16243;DHT22;11719;51.052;6.982;2023-04-25T08:28:50;12.10;99.90
16243;DHT22;11719;51.052;6.982;2023-04-25T08:31:17;12.20;99.90
16243;DHT22;11719;51.052;6.982;2023-04-25T08:33:43;12.20;99.90
16243;DHT22;11719;51.052;6.982;2023-04-25T08:36:10;12.30;99.90
16243;DHT22;11719;51.052;6.982;2023-04-25T08:38:37;12.20;99.90
16243;DHT22;11719;51.052;6.982;2023-04-25T08:41:03;12.30;99.90
16243;DHT22;11719;51.052;6.982;2023-04-25T08:43:30;12.10;99.90
16243;DHT22;11719;51.052;6.982;2023-04-25T08:46:00;12.20;99.90
16243;DHT22;11719;51.052;6.982;2023-04-25T08:48:32;12.30;99.90
16243;DHT22;11719;51.052;6.982;2023-04-25T08:51:03;12.40;99.90
16243;DHT22;11719;51.052;6.982;2023-04-25T08:53:34;12.50;99.90
16243;DHT22;11719;51.052;6.982;2023-04-25T08:56:01;12.40;99.90
16243;DHT22;11719;51.052;6.982;2023-04-25T08:58:28;12.50;99.90
16243;DHT22;11719;51.052;6.982;2023-04-25T09:00:54;12.60;99.90
16243;DHT22;11719;51.052;6.982;2023-04-25T09:03:20;12.80;99.90
16243;DHT22;11719;51.052;6.982;2023-04-25T09:05:46;12.90;99.90
16243;DHT22;11719;51.052;6.982;2023-04-25T09:08:12;13.00;99.90
16243;DHT22;11719;51.052;6.982;2023-04-25T09:10:38;12.90;99.90
16243;DHT22;11719;51.052;6.982;2023-04-25T09:13:10;12.90;99.90
16243;DHT22;11719;51.052;6.982;2023-04-25T09:16:00;12.90;99.90
16243;DHT22;11719;51.052;6.982;2023-04-25T09:18:34;12.70;99.90
16243;DHT22;11719;51.052;6.982;2023-04-25T09:21:10;12.70;99.90
16243;DHT22;11719;51.052;6.982;2023-04-25T09:23:45;12.60;99.90
16243;DHT22;11719;51.052;6.982;2023-04-25T09:26:16;12.60;99.90
16243;DHT22;11719;51.052;6.982;2023-04-25T09:28:43;12.40;99.90
16243;DHT22;11719;51.052;6.982;2023-04-25T09:31:11;12.50;99.90
16243;DHT22;11719;51.052;6.982;2023-04-25T09:33:38;12.50;99.90
16243;DHT22;11719;51.052;6.982;2023-04-25T09:36:06;12.40;99.00
16243;DHT22;11719;51.052;6.982;2023-04-25T09:38:41;12.40;99.90
16243;DHT22;11719;51.052;6.982;2023-04-25T09:41:11;12.40;98.70
16243;DHT22;11719;51.052;6.982;2023-04-25T09:43:37;12.30;98.30
16243;DHT22;11719;51.052;6.982;2023-04-25T09:46:09;12.50;99.60
16243;DHT22;11719;51.052;6.982;2023-04-25T09:48:36;12.80;99.90
16243;DHT22;11719;51.052;6.982;2023-04-25T09:53:37;13.00;99.90
16243;DHT22;11719;51.052;6.982;2023-04-25T09:56:07;13.30;99.90
16243;DHT22;11719;51.052;6.982;2023-04-25T09:58:36;13.20;99.50
16243;DHT22;11719;51.052;6.982;2023-04-25T10:01:07;13.20;97.30
16243;DHT22;11719;51.052;6.982;2023-04-25T10:03:35;13.20;99.90
16243;DHT22;11719;51.052;6.982;2023-04-25T10:06:04;13.40;98.60
16243;DHT22;11719;51.052;6.982;2023-04-25T10:08:34;13.20;95.90
16243;DHT22;11719;51.052;6.982;2023-04-25T10:11:03;13.10;95.90
16243;DHT22;11719;51.052;6.982;2023-04-25T10:13:31;13.00;95.80
16243;DHT22;11719;51.052;6.982;2023-04-25T10:15:58;12.90;95.40
16243;DHT22;11719;51.052;6.982;2023-04-25T10:18:25;12.80;96.80
16243;DHT22;11719;51.052;6.982;2023-04-25T10:20:54;12.90;97.40
16243;DHT22;11719;51.052;6.982;2023-04-25T10:23:22;12.70;97.90
16243;DHT22;11719;51.052;6.982;2023-04-25T10:25:53;12.90;99.90
16243;DHT22;11719;51.052;6.982;2023-04-25T10:28:19;13.50;99.90
16243;DHT22;11719;51.052;6.982;2023-04-25T10:30:59;13.40;97.00
16243;DHT22;11719;51.052;6.982;2023-04-25T10:33:39;13.20;96.00
16243;DHT22;11719;51.052;6.982;2023-04-25T10:36:13;13.00;97.30
16243;DHT22;11719;51.052;6.982;2023-04-25T10:38:50;12.90;96.80
16243;DHT22;11719;51.052;6.982;2023-04-25T10:41:18;12.80;96.10
16243;DHT22;11719;51.052;6.982;2023-04-25T10:43:47;12.50;96.40
16243;DHT22;11719;51.052;6.982;2023-04-25T10:48:56;12.40;96.50
16243;DHT22;11719;51.052;6.982;2023-04-25T10:51:27;12.50;96.70
16243;DHT22;11719;51.052;6.982;2023-04-25T10:54:05;12.50;96.00
16243;DHT22;11719;51.052;6.982;2023-04-25T10:56:39;12.50;95.30
16243;DHT22;11719;51.052;6.982;2023-04-25T10:59:17;12.40;95.70
16243;DHT22;11719;51.052;6.982;2023-04-25T11:01:51;12.50;96.60
16243;DHT22;11719;51.052;6.982;2023-04-25T11:04:25;12.60;97.00
16243;DHT22;11719;51.052;6.982;2023-04-25T11:09:38;12.80;94.70
16243;DHT22;11719;51.052;6.982;2023-04-25T11:12:07;12.90;95.50
16243;DHT22;11719;51.052;6.982;2023-04-25T11:14:35;13.10;95.80
16243;DHT22;11719;51.052;6.982;2023-04-25T11:17:01;13.40;94.80
16243;DHT22;11719;51.052;6.982;2023-04-25T11:19:29;13.30;94.90
16243;DHT22;11719;51.052;6.982;2023-04-25T11:21:59;13.40;95.70
16243;DHT22;11719;51.052;6.982;2023-04-25T11:24:30;13.20;93.80
16243;DHT22;11719;51.052;6.982;2023-04-25T11:26:58;13.30;94.00
16243;DHT22;11719;51.052;6.982;2023-04-25T11:29:32;13.50;93.00
16243;DHT22;11719;51.052;6.982;2023-04-25T11:31:59;13.90;94.00
16243;DHT22;11719;51.052;6.982;2023-04-25T11:34:27;14.20;99.50
16243;DHT22;11719;51.052;6.982;2023-04-25T11:36:56;14.40;98.50
16243;DHT22;11719;51.052;6.982;2023-04-25T11:39:24;14.60;96.70
16243;DHT22;11719;51.052;6.982;2023-04-25T11:41:50;14.50;92.00
16243;DHT22;11719;51.052;6.982;2023-04-25T11:44:17;14.40;90.70
16243;DHT22;11719;51.052;6.982;2023-04-25T11:46:44;14.40;89.30
16243;DHT22;11719;51.052;6.982;2023-04-25T11:49:10;14.10;85.90
16243;DHT22;11719;51.052;6.982;2023-04-25T11:51:44;14.00;87.10
16243;DHT22;11719;51.052;6.982;2023-04-25T11:54:11;14.00;91.20
16243;DHT22;11719;51.052;6.982;2023-04-25T11:56:44;14.00;90.00
16243;DHT22;11719;51.052;6.982;2023-04-25T11:59:10;14.10;89.20
16243;DHT22;11719;51.052;6.982;2023-04-25T12:01:39;13.90;90.20
16243;DHT22;11719;51.052;6.982;2023-04-25T12:04:13;13.80;89.40
16243;DHT22;11719;51.052;6.982;2023-04-25T12:06:45;13.70;90.90
16243;DHT22;11719;51.052;6.982;2023-04-25T12:09:14;14.00;91.60
16243;DHT22;11719;51.052;6.982;2023-04-25T12:12:01;14.00;90.60
16243;DHT22;11719;51.052;6.982;2023-04-25T12:14:32;14.10;95.40
16243;DHT22;11719;51.052;6.982;2023-04-25T12:17:02;14.20;85.90
16243;DHT22;11719;51.052;6.982;2023-04-25T12:19:33;14.10;85.80
16243;DHT22;11719;51.052;6.982;2023-04-25T12:22:01;14.10;88.80
16243;DHT22;11719;51.052;6.982;2023-04-25T12:24:33;13.90;86.80
16243;DHT22;11719;51.052;6.982;2023-04-25T12:27:00;13.80;86.40
16243;DHT22;11719;51.052;6.982;2023-04-25T12:29:32;13.80;85.90
16243;DHT22;11719;51.052;6.982;2023-04-25T12:31:58;13.80;87.70
16243;DHT22;11719;51.052;6.982;2023-04-25T12:34:25;13.70;87.60
16243;DHT22;11719;51.052;6.982;2023-04-25T12:36:52;13.60;91.50
16243;DHT22;11719;51.052;6.982;2023-04-25T12:39:22;13.70;92.40
16243;DHT22;11719;51.052;6.982;2023-04-25T12:41:52;13.80;91.50
16243;DHT22;11719;51.052;6.982;2023-04-25T12:44:21;13.70;92.00
16243;DHT22;11719;51.052;6.982;2023-04-25T12:46:47;13.70;93.00
16243;DHT22;11719;51.052;6.982;2023-04-25T12:49:13;13.60;91.70
16243;DHT22;11719;51.052;6.982;2023-04-25T12:51:40;13.30;92.20
16243;DHT22;11719;51.052;6.982;2023-04-25T12:54:07;13.10;92.30
16243;DHT22;11719;51.052;6.982;2023-04-25T12:56:34;13.00;92.60
16243;DHT22;11719;51.052;6.982;2023-04-25T12:59:00;12.90;91.80
16243;DHT22;11719;51.052;6.982;2023-04-25T13:01:28;12.90;92.20
16243;DHT22;11719;51.052;6.982;2023-04-25T13:03:54;12.80;92.30
16243;DHT22;11719;51.052;6.982;2023-04-25T13:06:21;12.80;92.60
16243;DHT22;11719;51.052;6.982;2023-04-25T13:08:47;12.80;93.70
16243;DHT22;11719;51.052;6.982;2023-04-25T13:11:13;12.70;92.60
16243;DHT22;11719;51.052;6.982;2023-04-25T13:13:44;12.80;95.00
16243;DHT22;11719;51.052;6.982;2023-04-25T13:16:10;13.00;93.20
16243;DHT22;11719;51.052;6.982;2023-04-25T13:18:39;13.00;94.30
16243;DHT22;11719;51.052;6.982;2023-04-25T13:21:05;13.50;98.20
16243;DHT22;11719;51.052;6.982;2023-04-25T13:23:31;14.10;97.80
16243;DHT22;11719;51.052;6.982;2023-04-25T13:25:57;14.60;97.10
16243;DHT22;11719;51.052;6.982;2023-04-25T13:28:24;15.10;96.90
16243;DHT22;11719;51.052;6.982;2023-04-25T13:30:50;15.50;96.20
16243;DHT22;11719;51.052;6.982;2023-04-25T13:33:17;15.80;95.30
16243;DHT22;11719;51.052;6.982;2023-04-25T13:35:43;16.20;96.10
16243;DHT22;11719;51.052;6.982;2023-04-25T13:38:12;16.40;95.80
16243;DHT22;11719;51.052;6.982;2023-04-25T13:40:39;16.70;95.00
16243;DHT22;11719;51.052;6.982;2023-04-25T13:43:04;16.90;94.90
16243;DHT22;11719;51.052;6.982;2023-04-25T13:45:32;17.00;94.20
16243;DHT22;11719;51.052;6.982;2023-04-25T13:47:57;17.10;93.60
16243;DHT22;11719;51.052;6.982;2023-04-25T13:50:23;17.00;89.70
16243;DHT22;11719;51.052;6.982;2023-04-25T13:52:49;16.70;90.70
16243;DHT22;11719;51.052;6.982;2023-04-25T13:55:15;16.70;89.90
16243;DHT22;11719;51.052;6.982;2023-04-25T13:57:41;16.20;88.80
16243;DHT22;11719;51.052;6.982;2023-04-25T14:00:07;16.00;91.50
16243;DHT22;11719;51.052;6.982;2023-04-25T14:02:34;15.90;90.60
16243;DHT22;11719;51.052;6.982;2023-04-25T14:05:02;15.80;90.60
16243;DHT22;11719;51.052;6.982;2023-04-25T14:07:29;15.40;91.30
16243;DHT22;11719;51.052;6.982;2023-04-25T14:09:55;15.30;90.20
16243;DHT22;11719;51.052;6.982;2023-04-25T14:12:23;15.20;91.70
16243;DHT22;11719;51.052;6.982;2023-04-25T14:14:49;15.00;90.60
16243;DHT22;11719;51.052;6.982;2023-04-25T14:17:16;14.90;92.90
16243;DHT22;11719;51.052;6.982;2023-04-25T14:19:42;15.10;94.50
16243;DHT22;11719;51.052;6.982;2023-04-25T14:22:11;15.20;93.90
16243;DHT22;11719;51.052;6.982;2023-04-25T14:24:37;15.40;93.90
16243;DHT22;11719;51.052;6.982;2023-04-25T14:27:03;15.70;91.90
16243;DHT22;11719;51.052;6.982;2023-04-25T14:29:29;15.70;88.00
16243;DHT22;11719;51.052;6.982;2023-04-25T14:31:55;15.50;91.30
16243;DHT22;11719;51.052;6.982;2023-04-25T14:34:23;15.10;83.10
16243;DHT22;11719;51.052;6.982;2023-04-25T14:36:49;15.00;85.20
16243;DHT22;11719;51.052;6.982;2023-04-25T14:39:15;14.80;90.20
16243;DHT22;11719;51.052;6.982;2023-04-25T14:41:41;14.70;87.50
16243;DHT22;11719;51.052;6.982;2023-04-25T14:44:07;14.70;84.60
16243;DHT22;11719;51.052;6.982;2023-04-25T14:46:33;14.70;87.40
16243;DHT22;11719;51.052;6.982;2023-04-25T14:48:59;15.00;85.40
16243;DHT22;11719;51.052;6.982;2023-04-25T14:51:26;15.30;85.70
16243;DHT22;11719;51.052;6.982;2023-04-25T14:53:52;15.80;91.30
16243;DHT22;11719;51.052;6.982;2023-04-25T14:56:18;16.10;90.10
16243;DHT22;11719;51.052;6.982;2023-04-25T14:58:44;16.30;90.50
16243;DHT22;11719;51.052;6.982;2023-04-25T15:01:11;16.80;85.80
16243;DHT22;11719;51.052;6.982;2023-04-25T15:03:38;17.00;81.80
16243;DHT22;11719;51.052;6.982;2023-04-25T15:06:05;17.50;83.60
16243;DHT22;11719;51.052;6.982;2023-04-25T15:08:34;18.00;83.30
16243;DHT22;11719;51.052;6.982;2023-04-25T15:11:01;17.60;81.10
16243;DHT22;11719;51.052;6.982;2023-04-25T15:13:28;17.50;85.90
16243;DHT22;11719;51.052;6.982;2023-04-25T15:15:54;17.20;82.20
16243;DHT22;11719;51.052;6.982;2023-04-25T15:18:21;16.60;81.20
16243;DHT22;11719;51.052;6.982;2023-04-25T15:20:49;16.20;84.40
16243;DHT22;11719;51.052;6.982;2023-04-25T15:23:16;15.80;88.40
16243;DHT22;11719;51.052;6.982;2023-04-25T15:25:42;15.90;93.20
16243;DHT22;11719;51.052;6.982;2023-04-25T15:28:08;16.20;92.90
16243;DHT22;11719;51.052;6.982;2023-04-25T15:30:34;16.20;92.90
16243;DHT22;11719;51.052;6.982;2023-04-25T15:33:00;16.30;91.70
16243;DHT22;11719;51.052;6.982;2023-04-25T15:35:25;16.00;90.90
16243;DHT22;11719;51.052;6.982;2023-04-25T15:37:51;15.80;86.10